sensor_id;sensor_type;location;lat;lon;timestamp;temperature;humidity
360;DHT22;168;48.872;9.226;2023-11-19T00:00:08;10.50;94.70
360;DHT22;168;48.872;9.226;2023-11-19T00:02:39;10.50;94.60
360;DHT22;168;48.872;9.226;2023-11-19T00:05:07;10.40;93.80
360;DHT22;168;48.872;9.226;2023-11-19T00:07:37;10.30;92.80
360;DHT22;168;48.872;9.226;2023-11-19T00:10:10;10.20;91.50
360;DHT22;168;48.872;9.226;2023-11-19T00:12:39;10.30;91.70
360;DHT22;168;48.872;9.226;2023-11-19T00:15:07;10.40;91.90
360;DHT22;168;48.872;9.226;2023-11-19T00:17:38;10.40;90.60
360;DHT22;168;48.872;9.226;2023-11-19T00:20:11;10.40;90.40
360;DHT22;168;48.872;9.226;2023-11-19T00:22:38;10.30;88.20
360;DHT22;168;48.872;9.226;2023-11-19T00:25:07;10.20;87.90
360;DHT22;168;48.872;9.226;2023-11-19T00:27:35;10.20;86.40
360;DHT22;168;48.872;9.226;2023-11-19T00:30:04;10.10;85.10
360;DHT22;168;48.872;9.226;2023-11-19T00:32:32;10.20;84.00
360;DHT22;168;48.872;9.226;2023-11-19T00:35:01;10.20;84.10
360;DHT22;168;48.872;9.226;2023-11-19T00:37:29;10.20;83.70
360;DHT22;168;48.872;9.226;2023-11-19T00:39:57;10.20;83.10
360;DHT22;168;48.872;9.226;2023-11-19T00:42:24;10.20;83.00
360;DHT22;168;48.872;9.226;2023-11-19T00:44:53;10.20;84.40
360;DHT22;168;48.872;9.226;2023-11-19T00:47:21;10.20;83.30
360;DHT22;168;48.872;9.226;2023-11-19T00:49:49;10.20;82.80
360;DHT22;168;48.872;9.226;2023-11-19T00:52:21;10.30;83.20
360;DHT22;168;48.872;9.226;2023-11-19T00:54:48;10.40;85.50
360;DHT22;168;48.872;9.226;2023-11-19T00:57:17;10.40;85.50
360;DHT22;168;48.872;9.226;2023-11-19T00:59:44;10.40;85.00
360;DHT22;168;48.872;9.226;2023-11-19T01:02:13;10.30;83.60
360;DHT22;168;48.872;9.226;2023-11-19T01:04:41;10.40;82.80
360;DHT22;168;48.872;9.226;2023-11-19T01:07:11;10.40;82.00
360;DHT22;168;48.872;9.226;2023-11-19T01:09:41;10.40;82.90
360;DHT22;168;48.872;9.226;2023-11-19T01:12:09;10.40;82.50
360;DHT22;168;48.872;9.226;2023-11-19T01:14:37;10.50;83.20
360;DHT22;168;48.872;9.226;2023-11-19T01:17:04;10.50;83.30
360;DHT22;168;48.872;9.226;2023-11-19T01:19:32;10.60;83.40
360;DHT22;168;48.872;9.226;2023-11-19T01:22:00;10.60;83.40
360;DHT22;168;48.872;9.226;2023-11-19T01:24:27;10.70;83.60
360;DHT22;168;48.872;9.226;2023-11-19T01:26:58;10.70;83.80
360;DHT22;168;48.872;9.226;2023-11-19T01:29:26;10.70;84.20
360;DHT22;168;48.872;9.226;2023-11-19T01:31:53;10.80;84.60
360;DHT22;168;48.872;9.226;2023-11-19T01:34:21;10.80;85.50
360;DHT22;168;48.872;9.226;2023-11-19T01:36:48;10.90;85.90
360;DHT22;168;48.872;9.226;2023-11-19T01:39:16;10.80;85.60
360;DHT22;168;48.872;9.226;2023-11-19T01:41:43;10.80;86.20
360;DHT22;168;48.872;9.226;2023-11-19T01:44:12;10.80;85.60
360;DHT22;168;48.872;9.226;2023-11-19T01:46:41;10.90;86.50
360;DHT22;168;48.872;9.226;2023-11-19T01:49:09;10.90;85.90
360;DHT22;168;48.872;9.226;2023-11-19T01:51:38;10.90;85.60
360;DHT22;168;48.872;9.226;2023-11-19T01:54:06;10.90;84.40
360;DHT22;168;48.872;9.226;2023-11-19T01:56:35;10.90;84.10
360;DHT22;168;48.872;9.226;2023-11-19T01:59:05;11.00;84.50
360;DHT22;168;48.872;9.226;2023-11-19T02:01:37;11.00;84.50
360;DHT22;168;48.872;9.226;2023-11-19T02:04:06;11.00;84.70
360;DHT22;168;48.872;9.226;2023-11-19T02:06:34;11.10;84.70
360;DHT22;168;48.872;9.226;2023-11-19T02:09:04;11.10;84.20
360;DHT22;168;48.872;9.226;2023-11-19T02:11:33;11.10;83.90
360;DHT22;168;48.872;9.226;2023-11-19T02:14:01;11.20;84.20
360;DHT22;168;48.872;9.226;2023-11-19T02:16:29;11.20;84.10
360;DHT22;168;48.872;9.226;2023-11-19T02:18:58;11.30;85.20
360;DHT22;168;48.872;9.226;2023-11-19T02:21:25;11.30;85.90
360;DHT22;168;48.872;9.226;2023-11-19T02:23:53;11.40;85.70
360;DHT22;168;48.872;9.226;2023-11-19T02:26:25;11.40;85.20
360;DHT22;168;48.872;9.226;2023-11-19T02:28:55;11.40;84.70
360;DHT22;168;48.872;9.226;2023-11-19T02:31:23;11.40;84.60
360;DHT22;168;48.872;9.226;2023-11-19T02:33:50;11.50;84.90
360;DHT22;168;48.872;9.226;2023-11-19T02:36:18;11.50;85.60
360;DHT22;168;48.872;9.226;2023-11-19T02:38:47;11.50;86.00
360;DHT22;168;48.872;9.226;2023-11-19T02:41:15;11.60;86.60
360;DHT22;168;48.872;9.226;2023-11-19T02:43:43;11.60;86.80
360;DHT22;168;48.872;9.226;2023-11-19T02:46:12;11.70;86.60
360;DHT22;168;48.872;9.226;2023-11-19T02:48:39;11.70;87.20
360;DHT22;168;48.872;9.226;2023-11-19T02:51:06;11.70;87.10
360;DHT22;168;48.872;9.226;2023-11-19T02:53:35;11.80;87.20
360;DHT22;168;48.872;9.226;2023-11-19T02:56:03;11.80;87.60
360;DHT22;168;48.872;9.226;2023-11-19T02:58:43;11.80;87.80
360;DHT22;168;48.872;9.226;2023-11-19T03:01:12;11.80;88.00
360;DHT22;168;48.872;9.226;2023-11-19T03:03:49;11.80;88.20
360;DHT22;168;48.872;9.226;2023-11-19T03:06:20;11.90;88.60
360;DHT22;168;48.872;9.226;2023-11-19T03:08:48;11.90;89.00
360;DHT22;168;48.872;9.226;2023-11-19T03:11:16;11.90;89.60
360;DHT22;168;48.872;9.226;2023-11-19T03:13:43;11.90;89.20
360;DHT22;168;48.872;9.226;2023-11-19T03:16:12;11.90;88.80
360;DHT22;168;48.872;9.226;2023-11-19T03:18:40;11.90;88.50
360;DHT22;168;48.872;9.226;2023-11-19T03:21:07;11.90;88.30
360;DHT22;168;48.872;9.226;2023-11-19T03:23:35;12.00;88.00
360;DHT22;168;48.872;9.226;2023-11-19T03:26:04;11.90;88.00
360;DHT22;168;48.872;9.226;2023-11-19T03:28:31;12.00;87.60
360;DHT22;168;48.872;9.226;2023-11-19T03:30:59;12.00;87.40
360;DHT22;168;48.872;9.226;2023-11-19T03:33:27;12.00;87.80
360;DHT22;168;48.872;9.226;2023-11-19T03:35:56;12.00;88.00
360;DHT22;168;48.872;9.226;2023-11-19T03:38:24;12.00;87.90
360;DHT22;168;48.872;9.226;2023-11-19T03:40:51;12.00;88.50
360;DHT22;168;48.872;9.226;2023-11-19T03:43:19;12.00;88.30
360;DHT22;168;48.872;9.226;2023-11-19T03:45:46;12.00;88.20
360;DHT22;168;48.872;9.226;2023-11-19T03:48:14;12.00;88.10
360;DHT22;168;48.872;9.226;2023-11-19T03:50:44;12.00;88.00
360;DHT22;168;48.872;9.226;2023-11-19T03:53:12;12.00;88.20
360;DHT22;168;48.872;9.226;2023-11-19T03:55:39;12.00;88.30
360;DHT22;168;48.872;9.226;2023-11-19T03:58:07;12.00;88.20
360;DHT22;168;48.872;9.226;2023-11-19T04:00:34;12.00;88.20
360;DHT22;168;48.872;9.226;2023-11-19T04:03:02;12.00;88.30
360;DHT22;168;48.872;9.226;2023-11-19T04:05:30;12.00;88.20
360;DHT22;168;48.872;9.226;2023-11-19T04:07:59;12.00;87.90
360;DHT22;168;48.872;9.226;2023-11-19T04:10:27;12.00;87.70
360;DHT22;168;48.872;9.226;2023-11-19T04:12:55;12.00;88.20
360;DHT22;168;48.872;9.226;2023-11-19T04:15:22;12.00;88.00
360;DHT22;168;48.872;9.226;2023-11-19T04:17:50;12.10;88.30
360;DHT22;168;48.872;9.226;2023-11-19T04:20:17;12.10;88.30
360;DHT22;168;48.872;9.226;2023-11-19T04:22:44;12.10;88.50
360;DHT22;168;48.872;9.226;2023-11-19T04:25:13;12.10;88.60
360;DHT22;168;48.872;9.226;2023-11-19T04:27:41;12.10;88.50
360;DHT22;168;48.872;9.226;2023-11-19T04:30:08;12.20;88.60
360;DHT22;168;48.872;9.226;2023-11-19T04:32:37;12.20;88.80
360;DHT22;168;48.872;9.226;2023-11-19T04:35:05;12.20;88.60
360;DHT22;168;48.872;9.226;2023-11-19T04:37:33;12.20;89.20
360;DHT22;168;48.872;9.226;2023-11-19T04:40:00;12.20;88.60
360;DHT22;168;48.872;9.226;2023-11-19T04:42:29;12.20;88.10
360;DHT22;168;48.872;9.226;2023-11-19T04:44:58;12.20;87.40
360;DHT22;168;48.872;9.226;2023-11-19T04:47:25;12.30;88.10
360;DHT22;168;48.872;9.226;2023-11-19T04:49:53;12.30;88.30
360;DHT22;168;48.872;9.226;2023-11-19T04:52:20;12.20;87.80
360;DHT22;168;48.872;9.226;2023-11-19T04:54:47;12.20;87.50
360;DHT22;168;48.872;9.226;2023-11-19T04:57:15;12.20;87.60
360;DHT22;168;48.872;9.226;2023-11-19T04:59:44;12.30;87.60
360;DHT22;168;48.872;9.226;2023-11-19T05:02:11;12.30;87.30
360;DHT22;168;48.872;9.226;2023-11-19T05:04:42;12.20;87.00
360;DHT22;168;48.872;9.226;2023-11-19T05:07:10;12.30;87.00
360;DHT22;168;48.872;9.226;2023-11-19T05:09:37;12.30;86.80
360;DHT22;168;48.872;9.226;2023-11-19T05:12:05;12.30;86.60
360;DHT22;168;48.872;9.226;2023-11-19T05:14:35;12.30;86.50
360;DHT22;168;48.872;9.226;2023-11-19T05:17:04;12.30;86.40
360;DHT22;168;48.872;9.226;2023-11-19T05:19:33;12.30;86.40
360;DHT22;168;48.872;9.226;2023-11-19T05:22:01;12.40;86.80
360;DHT22;168;48.872;9.226;2023-11-19T05:24:28;12.40;87.00
360;DHT22;168;48.872;9.226;2023-11-19T05:26:56;12.50;87.10
360;DHT22;168;48.872;9.226;2023-11-19T05:29:24;12.50;87.20
360;DHT22;168;48.872;9.226;2023-11-19T05:31:51;12.60;88.20
360;DHT22;168;48.872;9.226;2023-11-19T05:34:20;12.50;87.80
360;DHT22;168;48.872;9.226;2023-11-19T05:36:47;12.60;87.80
360;DHT22;168;48.872;9.226;2023-11-19T05:39:16;12.60;88.10
360;DHT22;168;48.872;9.226;2023-11-19T05:41:43;12.60;87.50
360;DHT22;168;48.872;9.226;2023-11-19T05:44:11;12.60;88.10
360;DHT22;168;48.872;9.226;2023-11-19T05:46:38;12.60;87.70
360;DHT22;168;48.872;9.226;2023-11-19T05:49:08;12.60;87.20
360;DHT22;168;48.872;9.226;2023-11-19T05:51:38;12.60;87.60
360;DHT22;168;48.872;9.226;2023-11-19T05:54:06;12.60;87.40
360;DHT22;168;48.872;9.226;2023-11-19T05:56:34;12.60;87.00
360;DHT22;168;48.872;9.226;2023-11-19T05:59:01;12.70;87.20
360;DHT22;168;48.872;9.226;2023-11-19T06:01:34;12.60;87.10
360;DHT22;168;48.872;9.226;2023-11-19T06:04:02;12.70;87.30
360;DHT22;168;48.872;9.226;2023-11-19T06:06:30;12.60;86.40
360;DHT22;168;48.872;9.226;2023-11-19T06:08:59;12.60;85.20
360;DHT22;168;48.872;9.226;2023-11-19T06:11:29;12.60;85.10
360;DHT22;168;48.872;9.226;2023-11-19T06:13:56;12.60;85.20
360;DHT22;168;48.872;9.226;2023-11-19T06:16:24;12.60;84.60
360;DHT22;168;48.872;9.226;2023-11-19T06:18:51;12.60;84.90
360;DHT22;168;48.872;9.226;2023-11-19T06:21:19;12.70;85.50
360;DHT22;168;48.872;9.226;2023-11-19T06:23:46;12.80;86.00
360;DHT22;168;48.872;9.226;2023-11-19T06:26:16;12.80;86.60
360;DHT22;168;48.872;9.226;2023-11-19T06:28:45;12.80;86.40
360;DHT22;168;48.872;9.226;2023-11-19T06:31:12;12.90;86.80
360;DHT22;168;48.872;9.226;2023-11-19T06:33:42;12.90;86.90
360;DHT22;168;48.872;9.226;2023-11-19T06:36:09;12.90;87.20
360;DHT22;168;48.872;9.226;2023-11-19T06:38:37;13.00;87.40
360;DHT22;168;48.872;9.226;2023-11-19T06:41:07;13.00;88.30
360;DHT22;168;48.872;9.226;2023-11-19T06:43:39;13.10;89.00
360;DHT22;168;48.872;9.226;2023-11-19T06:46:15;13.10;88.90
360;DHT22;168;48.872;9.226;2023-11-19T06:48:42;13.10;88.60
360;DHT22;168;48.872;9.226;2023-11-19T06:51:13;13.10;88.60
360;DHT22;168;48.872;9.226;2023-11-19T06:53:40;13.10;88.70
360;DHT22;168;48.872;9.226;2023-11-19T06:56:18;13.10;89.10
360;DHT22;168;48.872;9.226;2023-11-19T06:58:47;13.10;88.40
360;DHT22;168;48.872;9.226;2023-11-19T07:01:15;13.00;87.60
360;DHT22;168;48.872;9.226;2023-11-19T07:03:50;13.00;87.70
360;DHT22;168;48.872;9.226;2023-11-19T07:06:18;13.10;88.00
360;DHT22;168;48.872;9.226;2023-11-19T07:08:45;13.10;88.40
360;DHT22;168;48.872;9.226;2023-11-19T07:11:16;13.10;88.00
360;DHT22;168;48.872;9.226;2023-11-19T07:13:43;13.10;87.90
360;DHT22;168;48.872;9.226;2023-11-19T07:16:15;13.10;87.90
360;DHT22;168;48.872;9.226;2023-11-19T07:18:42;13.20;88.60
360;DHT22;168;48.872;9.226;2023-11-19T07:21:11;13.10;87.40
360;DHT22;168;48.872;9.226;2023-11-19T07:26:43;13.00;86.10
360;DHT22;168;48.872;9.226;2023-11-19T07:29:10;13.00;86.30
360;DHT22;168;48.872;9.226;2023-11-19T07:31:42;13.10;86.30
360;DHT22;168;48.872;9.226;2023-11-19T07:34:18;13.10;86.00
360;DHT22;168;48.872;9.226;2023-11-19T07:36:48;13.10;86.20
360;DHT22;168;48.872;9.226;2023-11-19T07:39:19;13.10;85.90
360;DHT22;168;48.872;9.226;2023-11-19T07:42:02;13.20;86.70
360;DHT22;168;48.872;9.226;2023-11-19T07:44:44;13.30;87.40
360;DHT22;168;48.872;9.226;2023-11-19T07:47:13;13.40;88.30
360;DHT22;168;48.872;9.226;2023-11-19T07:49:41;13.40;88.40
360;DHT22;168;48.872;9.226;2023-11-19T07:52:09;13.40;89.10
360;DHT22;168;48.872;9.226;2023-11-19T07:54:37;13.50;89.60
360;DHT22;168;48.872;9.226;2023-11-19T07:57:05;13.50;90.30
360;DHT22;168;48.872;9.226;2023-11-19T07:59:32;13.60;90.60
360;DHT22;168;48.872;9.226;2023-11-19T08:02:00;13.60;90.50
360;DHT22;168;48.872;9.226;2023-11-19T08:04:28;13.60;90.40
360;DHT22;168;48.872;9.226;2023-11-19T08:06:56;13.60;90.30
360;DHT22;168;48.872;9.226;2023-11-19T08:09:25;13.60;90.60
360;DHT22;168;48.872;9.226;2023-11-19T08:11:56;13.70;91.10
360;DHT22;168;48.872;9.226;2023-11-19T08:14:23;13.70;91.60
360;DHT22;168;48.872;9.226;2023-11-19T08:16:50;13.80;91.90
360;DHT22;168;48.872;9.226;2023-11-19T08:19:19;13.80;91.70
360;DHT22;168;48.872;9.226;2023-11-19T08:21:51;13.80;92.30
360;DHT22;168;48.872;9.226;2023-11-19T08:24:21;13.90;92.40
360;DHT22;168;48.872;9.226;2023-11-19T08:26:48;13.90;93.00
360;DHT22;168;48.872;9.226;2023-11-19T08:29:16;14.00;93.00
360;DHT22;168;48.872;9.226;2023-11-19T08:31:43;14.10;92.70
360;DHT22;168;48.872;9.226;2023-11-19T08:34:11;14.20;93.10
360;DHT22;168;48.872;9.226;2023-11-19T08:36:38;14.30;93.70
360;DHT22;168;48.872;9.226;2023-11-19T08:39:08;14.40;94.60
360;DHT22;168;48.872;9.226;2023-11-19T08:41:46;14.40;94.70
360;DHT22;168;48.872;9.226;2023-11-19T08:44:14;14.40;94.60
360;DHT22;168;48.872;9.226;2023-11-19T08:46:47;14.40;94.30
360;DHT22;168;48.872;9.226;2023-11-19T08:49:14;14.30;92.70
360;DHT22;168;48.872;9.226;2023-11-19T08:51:42;14.30;91.70
360;DHT22;168;48.872;9.226;2023-11-19T08:54:11;14.40;92.60
360;DHT22;168;48.872;9.226;2023-11-19T08:56:38;14.40;92.70
360;DHT22;168;48.872;9.226;2023-11-19T08:59:06;14.40;92.00
360;DHT22;168;48.872;9.226;2023-11-19T09:01:39;14.50;92.60
360;DHT22;168;48.872;9.226;2023-11-19T09:04:35;14.60;92.90
360;DHT22;168;48.872;9.226;2023-11-19T09:07:03;14.60;91.90
360;DHT22;168;48.872;9.226;2023-11-19T09:09:32;14.80;94.20
360;DHT22;168;48.872;9.226;2023-11-19T09:12:03;15.00;94.30
360;DHT22;168;48.872;9.226;2023-11-19T09:14:34;15.10;94.50
360;DHT22;168;48.872;9.226;2023-11-19T09:17:04;15.30;94.30
360;DHT22;168;48.872;9.226;2023-11-19T09:19:32;15.40;95.90
360;DHT22;168;48.872;9.226;2023-11-19T09:22:11;15.50;96.30
360;DHT22;168;48.872;9.226;2023-11-19T09:24:40;15.60;95.90
360;DHT22;168;48.872;9.226;2023-11-19T09:31:02;15.90;96.80
360;DHT22;168;48.872;9.226;2023-11-19T09:33:48;15.80;96.80
360;DHT22;168;48.872;9.226;2023-11-19T09:39:59;15.80;97.00
360;DHT22;168;48.872;9.226;2023-11-19T09:42:42;15.60;96.60
360;DHT22;168;48.872;9.226;2023-11-19T09:45:14;15.50;96.80
360;DHT22;168;48.872;9.226;2023-11-19T09:47:54;15.40;96.90
360;DHT22;168;48.872;9.226;2023-11-19T09:50:46;15.40;96.90
360;DHT22;168;48.872;9.226;2023-11-19T09:53:17;15.50;97.00
360;DHT22;168;48.872;9.226;2023-11-19T09:55:49;15.70;96.80
360;DHT22;168;48.872;9.226;2023-11-19T09:58:26;15.80;96.60
360;DHT22;168;48.872;9.226;2023-11-19T10:00:53;15.80;96.70
360;DHT22;168;48.872;9.226;2023-11-19T10:03:23;15.90;96.80
360;DHT22;168;48.872;9.226;2023-11-19T10:05:51;16.10;96.80
360;DHT22;168;48.872;9.226;2023-11-19T10:08:18;16.40;97.00
360;DHT22;168;48.872;9.226;2023-11-19T10:10:53;16.60;96.60
360;DHT22;168;48.872;9.226;2023-11-19T10:13:26;16.80;96.10
360;DHT22;168;48.872;9.226;2023-11-19T10:15:56;17.00;96.00
360;DHT22;168;48.872;9.226;2023-11-19T10:18:25;17.10;95.00
360;DHT22;168;48.872;9.226;2023-11-19T10:21:02;17.20;94.90
360;DHT22;168;48.872;9.226;2023-11-19T10:24:18;17.20;94.30
360;DHT22;168;48.872;9.226;2023-11-19T10:27:00;17.30;94.70
360;DHT22;168;48.872;9.226;2023-11-19T10:29:30;17.40;94.20
360;DHT22;168;48.872;9.226;2023-11-19T10:32:07;17.40;94.50
360;DHT22;168;48.872;9.226;2023-11-19T10:34:35;17.50;94.00
360;DHT22;168;48.872;9.226;2023-11-19T10:37:37;17.50;93.80
360;DHT22;168;48.872;9.226;2023-11-19T10:40:06;17.70;91.30
360;DHT22;168;48.872;9.226;2023-11-19T10:42:58;17.50;89.90
360;DHT22;168;48.872;9.226;2023-11-19T10:45:30;17.00;90.20
360;DHT22;168;48.872;9.226;2023-11-19T10:54:51;16.40;91.10
360;DHT22;168;48.872;9.226;2023-11-19T10:57:29;16.20;91.50
360;DHT22;168;48.872;9.226;2023-11-19T11:00:01;16.20;91.50
360;DHT22;168;48.872;9.226;2023-11-19T11:02:51;16.10;91.20
360;DHT22;168;48.872;9.226;2023-11-19T11:08:30;16.20;90.70
360;DHT22;168;48.872;9.226;2023-11-19T11:14:27;15.90;90.30
360;DHT22;168;48.872;9.226;2023-11-19T11:17:05;15.90;90.40
360;DHT22;168;48.872;9.226;2023-11-19T11:19:33;16.00;90.50
360;DHT22;168;48.872;9.226;2023-11-19T11:22:04;15.90;90.80
360;DHT22;168;48.872;9.226;2023-11-19T11:24:51;16.10;90.70
360;DHT22;168;48.872;9.226;2023-11-19T11:28:00;16.20;90.60
360;DHT22;168;48.872;9.226;2023-11-19T11:30:46;16.20;89.40
360;DHT22;168;48.872;9.226;2023-11-19T11:57:31;17.10;85.90
360;DHT22;168;48.872;9.226;2023-11-19T12:00:52;17.00;86.20
360;DHT22;168;48.872;9.226;2023-11-19T12:03:26;17.00;86.00
360;DHT22;168;48.872;9.226;2023-11-19T12:08:26;17.20;85.90
360;DHT22;168;48.872;9.226;2023-11-19T12:10:55;17.10;85.80
360;DHT22;168;48.872;9.226;2023-11-19T12:13:46;17.10;86.00
360;DHT22;168;48.872;9.226;2023-11-19T12:16:14;17.10;86.10
360;DHT22;168;48.872;9.226;2023-11-19T12:18:42;17.00;86.40
360;DHT22;168;48.872;9.226;2023-11-19T12:21:09;17.00;87.30
360;DHT22;168;48.872;9.226;2023-11-19T12:23:45;17.00;87.60
360;DHT22;168;48.872;9.226;2023-11-19T12:26:33;17.00;87.00
360;DHT22;168;48.872;9.226;2023-11-19T12:29:03;17.00;87.80
360;DHT22;168;48.872;9.226;2023-11-19T12:31:32;16.90;87.40
360;DHT22;168;48.872;9.226;2023-11-19T12:34:06;16.90;88.00
360;DHT22;168;48.872;9.226;2023-11-19T12:36:39;16.80;87.30
360;DHT22;168;48.872;9.226;2023-11-19T12:39:07;16.80;84.40
360;DHT22;168;48.872;9.226;2023-11-19T12:41:49;16.90;83.30
360;DHT22;168;48.872;9.226;2023-11-19T12:44:18;16.90;82.80
360;DHT22;168;48.872;9.226;2023-11-19T12:46:46;16.90;83.00
360;DHT22;168;48.872;9.226;2023-11-19T12:49:13;16.90;82.80
360;DHT22;168;48.872;9.226;2023-11-19T12:51:41;16.90;82.80
360;DHT22;168;48.872;9.226;2023-11-19T12:54:08;16.80;82.40
360;DHT22;168;48.872;9.226;2023-11-19T12:56:36;16.70;82.30
360;DHT22;168;48.872;9.226;2023-11-19T12:59:13;16.60;82.30
360;DHT22;168;48.872;9.226;2023-11-19T13:01:41;16.60;82.90
360;DHT22;168;48.872;9.226;2023-11-19T13:04:20;16.70;82.30
360;DHT22;168;48.872;9.226;2023-11-19T13:06:47;16.70;82.00
360;DHT22;168;48.872;9.226;2023-11-19T13:09:24;16.90;82.10
360;DHT22;168;48.872;9.226;2023-11-19T13:11:52;17.00;81.30
360;DHT22;168;48.872;9.226;2023-11-19T13:14:20;17.10;80.40
360;DHT22;168;48.872;9.226;2023-11-19T13:16:49;17.10;80.80
360;DHT22;168;48.872;9.226;2023-11-19T13:19:16;17.20;80.60
360;DHT22;168;48.872;9.226;2023-11-19T13:21:45;17.10;80.20
360;DHT22;168;48.872;9.226;2023-11-19T13:24:13;16.90;80.80
360;DHT22;168;48.872;9.226;2023-11-19T13:26:40;16.90;80.30
360;DHT22;168;48.872;9.226;2023-11-19T13:29:08;17.00;81.40
360;DHT22;168;48.872;9.226;2023-11-19T13:31:36;17.10;80.70
360;DHT22;168;48.872;9.226;2023-11-19T13:34:05;17.10;78.80
360;DHT22;168;48.872;9.226;2023-11-19T13:36:34;16.90;78.40
360;DHT22;168;48.872;9.226;2023-11-19T13:39:01;16.70;78.10
360;DHT22;168;48.872;9.226;2023-11-19T13:41:28;16.60;79.30
360;DHT22;168;48.872;9.226;2023-11-19T13:43:56;16.50;79.90
360;DHT22;168;48.872;9.226;2023-11-19T13:46:23;16.50;79.80
360;DHT22;168;48.872;9.226;2023-11-19T13:48:50;16.40;80.40
360;DHT22;168;48.872;9.226;2023-11-19T13:51:19;16.30;81.10
360;DHT22;168;48.872;9.226;2023-11-19T13:53:47;16.30;81.40
360;DHT22;168;48.872;9.226;2023-11-19T13:56:14;16.20;81.50
360;DHT22;168;48.872;9.226;2023-11-19T13:58:41;16.20;81.90
360;DHT22;168;48.872;9.226;2023-11-19T14:01:09;16.10;82.10
360;DHT22;168;48.872;9.226;2023-11-19T14:03:38;16.10;82.30
360;DHT22;168;48.872;9.226;2023-11-19T14:06:06;16.00;82.70
360;DHT22;168;48.872;9.226;2023-11-19T14:08:35;16.00;82.60
360;DHT22;168;48.872;9.226;2023-11-19T14:11:03;16.00;83.00
360;DHT22;168;48.872;9.226;2023-11-19T14:13:31;16.00;82.90
360;DHT22;168;48.872;9.226;2023-11-19T14:15:58;16.00;83.00
360;DHT22;168;48.872;9.226;2023-11-19T14:18:26;16.00;79.60
360;DHT22;168;48.872;9.226;2023-11-19T14:20:54;15.90;76.40
360;DHT22;168;48.872;9.226;2023-11-19T14:23:21;15.80;75.50
360;DHT22;168;48.872;9.226;2023-11-19T14:25:51;15.80;75.50
360;DHT22;168;48.872;9.226;2023-11-19T14:28:18;15.70;75.80
360;DHT22;168;48.872;9.226;2023-11-19T14:30:46;15.70;76.60
360;DHT22;168;48.872;9.226;2023-11-19T14:33:20;15.60;77.00
360;DHT22;168;48.872;9.226;2023-11-19T14:35:47;15.70;77.50
360;DHT22;168;48.872;9.226;2023-11-19T14:38:15;15.70;77.70
360;DHT22;168;48.872;9.226;2023-11-19T14:40:42;15.60;77.30
360;DHT22;168;48.872;9.226;2023-11-19T14:43:11;15.60;77.50
360;DHT22;168;48.872;9.226;2023-11-19T14:45:41;15.50;77.70
360;DHT22;168;48.872;9.226;2023-11-19T14:48:08;15.60;77.30
360;DHT22;168;48.872;9.226;2023-11-19T14:50:36;15.50;77.80
360;DHT22;168;48.872;9.226;2023-11-19T14:53:03;15.50;78.60
360;DHT22;168;48.872;9.226;2023-11-19T14:55:30;15.40;79.30
360;DHT22;168;48.872;9.226;2023-11-19T14:57:59;15.40;79.80
360;DHT22;168;48.872;9.226;2023-11-19T15:00:27;15.40;80.40
360;DHT22;168;48.872;9.226;2023-11-19T15:02:55;15.40;80.70
360;DHT22;168;48.872;9.226;2023-11-19T15:05:22;15.30;81.10
360;DHT22;168;48.872;9.226;2023-11-19T15:07:50;15.30;81.50
360;DHT22;168;48.872;9.226;2023-11-19T15:10:17;15.20;81.90
360;DHT22;168;48.872;9.226;2023-11-19T15:12:44;15.20;82.30
360;DHT22;168;48.872;9.226;2023-11-19T15:15:12;15.20;81.80
360;DHT22;168;48.872;9.226;2023-11-19T15:17:41;15.20;81.50
360;DHT22;168;48.872;9.226;2023-11-19T15:20:09;15.20;81.60
360;DHT22;168;48.872;9.226;2023-11-19T15:22:39;15.10;81.10
360;DHT22;168;48.872;9.226;2023-11-19T15:25:08;15.00;81.70
360;DHT22;168;48.872;9.226;2023-11-19T15:27:36;15.00;81.40
360;DHT22;168;48.872;9.226;2023-11-19T15:30:04;15.00;81.70
360;DHT22;168;48.872;9.226;2023-11-19T15:32:32;15.00;81.50
360;DHT22;168;48.872;9.226;2023-11-19T15:35:00;14.90;81.60
360;DHT22;168;48.872;9.226;2023-11-19T15:37:29;14.80;81.60
360;DHT22;168;48.872;9.226;2023-11-19T15:39:56;14.80;81.90
360;DHT22;168;48.872;9.226;2023-11-19T15:42:24;14.70;82.00
360;DHT22;168;48.872;9.226;2023-11-19T15:44:51;14.60;82.10
360;DHT22;168;48.872;9.226;2023-11-19T15:47:19;14.50;82.80
360;DHT22;168;48.872;9.226;2023-11-19T15:49:47;14.50;82.80
360;DHT22;168;48.872;9.226;2023-11-19T15:52:17;14.50;83.00
360;DHT22;168;48.872;9.226;2023-11-19T15:54:48;14.50;83.20
360;DHT22;168;48.872;9.226;2023-11-19T15:57:16;14.50;83.10
360;DHT22;168;48.872;9.226;2023-11-19T15:59:43;14.40;83.00
360;DHT22;168;48.872;9.226;2023-11-19T16:02:11;14.40;83.30
360;DHT22;168;48.872;9.226;2023-11-19T16:04:39;14.40;83.40
360;DHT22;168;48.872;9.226;2023-11-19T16:07:06;14.40;83.50
360;DHT22;168;48.872;9.226;2023-11-19T16:09:35;14.40;83.50
360;DHT22;168;48.872;9.226;2023-11-19T16:12:04;14.20;84.00
360;DHT22;168;48.872;9.226;2023-11-19T16:14:32;14.20;84.00
360;DHT22;168;48.872;9.226;2023-11-19T16:16:59;14.20;83.90
360;DHT22;168;48.872;9.226;2023-11-19T16:19:26;14.20;84.20
360;DHT22;168;48.872;9.226;2023-11-19T16:21:54;14.20;84.20
360;DHT22;168;48.872;9.226;2023-11-19T16:24:21;14.20;84.30
360;DHT22;168;48.872;9.226;2023-11-19T16:26:50;14.20;84.30
360;DHT22;168;48.872;9.226;2023-11-19T16:29:17;14.20;84.00
360;DHT22;168;48.872;9.226;2023-11-19T16:31:45;14.20;84.20
360;DHT22;168;48.872;9.226;2023-11-19T16:34:14;14.10;84.50
360;DHT22;168;48.872;9.226;2023-11-19T16:36:41;14.10;84.70
360;DHT22;168;48.872;9.226;2023-11-19T16:39:11;14.10;84.60
360;DHT22;168;48.872;9.226;2023-11-19T16:41:39;14.10;84.90
360;DHT22;168;48.872;9.226;2023-11-19T16:44:08;14.00;85.00
360;DHT22;168;48.872;9.226;2023-11-19T16:46:35;14.10;85.40
360;DHT22;168;48.872;9.226;2023-11-19T16:49:02;14.00;86.70
360;DHT22;168;48.872;9.226;2023-11-19T16:51:30;14.10;85.80
360;DHT22;168;48.872;9.226;2023-11-19T16:53:57;14.20;85.10
360;DHT22;168;48.872;9.226;2023-11-19T16:56:25;14.30;84.90
360;DHT22;168;48.872;9.226;2023-11-19T16:58:52;14.30;85.10
360;DHT22;168;48.872;9.226;2023-11-19T17:01:20;14.20;85.40
360;DHT22;168;48.872;9.226;2023-11-19T17:03:48;14.10;85.80
360;DHT22;168;48.872;9.226;2023-11-19T17:06:15;14.10;86.20
360;DHT22;168;48.872;9.226;2023-11-19T17:08:43;14.10;86.60
360;DHT22;168;48.872;9.226;2023-11-19T17:11:10;14.10;86.80
360;DHT22;168;48.872;9.226;2023-11-19T17:13:37;14.10;86.70
360;DHT22;168;48.872;9.226;2023-11-19T17:16:05;14.10;86.70
360;DHT22;168;48.872;9.226;2023-11-19T17:18:35;14.10;86.80
360;DHT22;168;48.872;9.226;2023-11-19T17:21:04;14.00;87.40
360;DHT22;168;48.872;9.226;2023-11-19T17:23:31;14.00;87.20
360;DHT22;168;48.872;9.226;2023-11-19T17:25:58;14.00;87.50
360;DHT22;168;48.872;9.226;2023-11-19T17:28:26;14.00;87.90
360;DHT22;168;48.872;9.226;2023-11-19T17:30:53;14.00;88.10
360;DHT22;168;48.872;9.226;2023-11-19T17:33:20;14.00;87.60
360;DHT22;168;48.872;9.226;2023-11-19T17:35:49;13.90;88.40
360;DHT22;168;48.872;9.226;2023-11-19T17:38:16;14.00;88.30
360;DHT22;168;48.872;9.226;2023-11-19T17:40:44;13.90;88.10